Senata — A8PS4 — position and weather

sailwx.info

Track history (hours):
 
Tides and Currents Weather Stations Pressure Air Temp Water Temp Dewpoint Dewpoint Depression Visibility Wind Speed Wind Dir Waves Ship Positions

Senata

Last reported at 2018-Aug-19 21:56 UTC. Time now 2018-Aug-20 16:20 UTC.
Position N 35°57' W 006°05'.

Length 141 m; draft 4.7 m.

Type: Cargo ship. MMSI: 636013823.

Date/timePositionNaut miles runAvg speedWind from/ knotsBaromVisibWave heightAir tempDewpointWater temp
2018-Aug-19 21:56N 35°57' W 006°05'510.7
2018-Aug-19 21:27N 35°57' W 005°59'711.0
2018-Aug-19 20:49N 35°57' W 005°50'410.3
2018-Aug-19 20:28N 35°57' W 005°46'710.8
2018-Aug-19 19:46N 35°57' W 005°36'310.5
2018-Aug-19 19:30N 35°58' W 005°33'5 9.4
2018-Aug-19 19:00N 35°59' W 005°28'4 8.9
2018-Aug-19 18:30N 36°01' W 005°23'4 8.4
2018-Aug-19 18:00N 36°02' W 005°18'4 8.3
2018-Aug-19 17:30N 36°04' W 005°13'  
2018-Aug-16 08:28N 37°33' W 000°59'4 7.3
2018-Aug-16 07:58N 37°31' W 000°56'4 8.3
2018-Aug-16 07:30N 37°29' W 000°51'5 9.3
2018-Aug-16 07:00N 37°31' W 000°45'5 9.1
2018-Aug-16 06:29N 37°32' W 000°40'4 8.7
2018-Aug-16 06:00N 37°34' W 000°35'5 9.0
2018-Aug-16 05:29N 37°37' W 000°30'4 8.9
2018-Aug-16 05:00N 37°39' W 000°26'4 8.6
2018-Aug-16 04:30N 37°41' W 000°21'5 9.0
2018-Aug-16 04:00N 37°41' W 000°15'  
2018-Aug-12 23:52N 36°60' E 012°33'3 9.8
2018-Aug-12 23:30N 36°59' E 012°37'5 9.7
2018-Aug-12 23:00N 36°57' E 012°43'6 9.9
2018-Aug-12 22:21N 36°54' E 012°50'3 9.7
2018-Aug-12 22:00N 36°53' E 012°54'5 9.2
2018-Aug-12 21:30N 36°52' E 012°60'5 9.3
2018-Aug-12 21:00N 36°51' E 013°06'5 9.7
2018-Aug-12 20:30N 36°50' E 013°11'5 9.5
2018-Aug-12 19:56N 36°48' E 013°18'4 9.6
2018-Aug-12 19:30N 36°47' E 013°23'5 9.5
2018-Aug-12 18:57N 36°45' E 013°29'4 9.3
2018-Aug-12 18:30N 36°44' E 013°34'5 9.3
2018-Aug-12 18:00N 36°43' E 013°39'5 9.3
2018-Aug-12 17:27N 36°41' E 013°46'4 9.4
2018-Aug-12 17:00N 36°40' E 013°51'5 9.4
2018-Aug-12 16:30N 36°39' E 013°56'5 9.2
2018-Aug-12 15:59N 36°37' E 014°02'  
2018-Aug-10 09:37N 37°13' E 023°43'110.7
2018-Aug-10 09:30N 37°14' E 023°44'  
Track history (hours):
 
Tides and Currents Weather Stations Pressure Air Temp Water Temp Dewpoint Dewpoint Depression Visibility Wind Speed Wind Dir Waves Ship Positions

Senata

Last reported at 2018-Aug-19 21:56 UTC. Time now 2018-Aug-20 16:20 UTC.
Position N 35°57' W 006°05'.

Length 141 m; draft 4.7 m.

Type: Cargo ship. MMSI: 636013823.

Date/timePositionNaut miles runAvg speedWind from/ knotsBaromVisibWave heightAir tempDewpointWater temp
2018-Aug-19 21:56N 35°57' W 006°05'510.7
2018-Aug-19 21:27N 35°57' W 005°59'711.0
2018-Aug-19 20:49N 35°57' W 005°50'410.3
2018-Aug-19 20:28N 35°57' W 005°46'710.8
2018-Aug-19 19:46N 35°57' W 005°36'310.5
2018-Aug-19 19:30N 35°58' W 005°33'5 9.4
2018-Aug-19 19:00N 35°59' W 005°28'4 8.9
2018-Aug-19 18:30N 36°01' W 005°23'4 8.4
2018-Aug-19 18:00N 36°02' W 005°18'4 8.3
2018-Aug-19 17:30N 36°04' W 005°13'  
2018-Aug-16 08:28N 37°33' W 000°59'4 7.3
2018-Aug-16 07:58N 37°31' W 000°56'4 8.3
2018-Aug-16 07:30N 37°29' W 000°51'5 9.3
2018-Aug-16 07:00N 37°31' W 000°45'5 9.1
2018-Aug-16 06:29N 37°32' W 000°40'4 8.7
2018-Aug-16 06:00N 37°34' W 000°35'5 9.0
2018-Aug-16 05:29N 37°37' W 000°30'4 8.9
2018-Aug-16 05:00N 37°39' W 000°26'4 8.6
2018-Aug-16 04:30N 37°41' W 000°21'5 9.0
2018-Aug-16 04:00N 37°41' W 000°15'  
2018-Aug-12 23:52N 36°60' E 012°33'3 9.8
2018-Aug-12 23:30N 36°59' E 012°37'5 9.7
2018-Aug-12 23:00N 36°57' E 012°43'6 9.9
2018-Aug-12 22:21N 36°54' E 012°50'3 9.7
2018-Aug-12 22:00N 36°53' E 012°54'5 9.2
2018-Aug-12 21:30N 36°52' E 012°60'5 9.3
2018-Aug-12 21:00N 36°51' E 013°06'5 9.7
2018-Aug-12 20:30N 36°50' E 013°11'5 9.5
2018-Aug-12 19:56N 36°48' E 013°18'4 9.6
2018-Aug-12 19:30N 36°47' E 013°23'5 9.5
2018-Aug-12 18:57N 36°45' E 013°29'4 9.3
2018-Aug-12 18:30N 36°44' E 013°34'5 9.3
2018-Aug-12 18:00N 36°43' E 013°39'5 9.3
2018-Aug-12 17:27N 36°41' E 013°46'4 9.4
2018-Aug-12 17:00N 36°40' E 013°51'5 9.4
2018-Aug-12 16:30N 36°39' E 013°56'5 9.2
2018-Aug-12 15:59N 36°37' E 014°02'  
2018-Aug-10 09:37N 37°13' E 023°43'110.7
2018-Aug-10 09:30N 37°14' E 023°44'  

Dump ship's entire track history